sensor_id;sensor_type;location;lat;lon;timestamp;P1;durP1;ratioP1;P2;durP2;ratioP2
13343;SDS011;6741;48.964;9.406;2022-08-21T00:01:51;3.77;;;3.47;;
13343;SDS011;6741;48.964;9.406;2022-08-21T00:04:18;5.00;;;3.50;;
13343;SDS011;6741;48.964;9.406;2022-08-21T00:06:46;3.97;;;3.67;;
13343;SDS011;6741;48.964;9.406;2022-08-21T00:09:13;5.83;;;3.90;;
13343;SDS011;6741;48.964;9.406;2022-08-21T00:11:40;4.10;;;3.80;;
13343;SDS011;6741;48.964;9.406;2022-08-21T00:14:08;5.03;;;3.90;;
13343;SDS011;6741;48.964;9.406;2022-08-21T00:16:36;3.77;;;3.40;;
13343;SDS011;6741;48.964;9.406;2022-08-21T00:19:03;3.90;;;3.60;;
13343;SDS011;6741;48.964;9.406;2022-08-21T00:21:31;4.77;;;3.60;;
13343;SDS011;6741;48.964;9.406;2022-08-21T00:24:00;4.93;;;4.07;;
13343;SDS011;6741;48.964;9.406;2022-08-21T00:26:27;4.73;;;3.13;;
13343;SDS011;6741;48.964;9.406;2022-08-21T00:28:54;7.13;;;3.90;;
13343;SDS011;6741;48.964;9.406;2022-08-21T00:31:21;3.67;;;3.47;;
13343;SDS011;6741;48.964;9.406;2022-08-21T00:33:48;3.23;;;2.93;;
13343;SDS011;6741;48.964;9.406;2022-08-21T00:36:15;4.17;;;3.87;;
13343;SDS011;6741;48.964;9.406;2022-08-21T00:38:42;4.40;;;3.57;;
13343;SDS011;6741;48.964;9.406;2022-08-21T00:41:11;5.27;;;3.63;;
13343;SDS011;6741;48.964;9.406;2022-08-21T00:43:38;4.37;;;3.80;;
13343;SDS011;6741;48.964;9.406;2022-08-21T00:46:06;3.73;;;3.43;;
13343;SDS011;6741;48.964;9.406;2022-08-21T00:48:33;3.57;;;3.27;;
13343;SDS011;6741;48.964;9.406;2022-08-21T00:51:01;7.43;;;3.53;;
13343;SDS011;6741;48.964;9.406;2022-08-21T00:53:32;3.70;;;2.93;;
13343;SDS011;6741;48.964;9.406;2022-08-21T00:56:04;4.87;;;3.50;;
13343;SDS011;6741;48.964;9.406;2022-08-21T00:58:34;4.23;;;3.57;;
13343;SDS011;6741;48.964;9.406;2022-08-21T01:01:03;3.80;;;3.43;;
13343;SDS011;6741;48.964;9.406;2022-08-21T01:03:31;4.30;;;3.00;;
13343;SDS011;6741;48.964;9.406;2022-08-21T01:05:59;2.97;;;2.77;;
13343;SDS011;6741;48.964;9.406;2022-08-21T01:08:26;3.80;;;3.50;;
13343;SDS011;6741;48.964;9.406;2022-08-21T01:10:55;3.53;;;3.23;;
13343;SDS011;6741;48.964;9.406;2022-08-21T01:13:24;3.70;;;3.30;;
13343;SDS011;6741;48.964;9.406;2022-08-21T01:15:55;5.93;;;4.47;;
13343;SDS011;6741;48.964;9.406;2022-08-21T01:18:24;4.10;;;3.70;;
13343;SDS011;6741;48.964;9.406;2022-08-21T01:21:01;3.80;;;3.07;;
13343;SDS011;6741;48.964;9.406;2022-08-21T01:23:29;4.10;;;3.47;;
13343;SDS011;6741;48.964;9.406;2022-08-21T01:25:57;3.67;;;3.23;;
13343;SDS011;6741;48.964;9.406;2022-08-21T01:28:24;3.70;;;3.40;;
13343;SDS011;6741;48.964;9.406;2022-08-21T01:30:52;5.00;;;3.47;;
13343;SDS011;6741;48.964;9.406;2022-08-21T01:33:21;3.60;;;3.30;;
13343;SDS011;6741;48.964;9.406;2022-08-21T01:35:50;4.70;;;3.73;;
13343;SDS011;6741;48.964;9.406;2022-08-21T01:38:18;4.20;;;3.80;;
13343;SDS011;6741;48.964;9.406;2022-08-21T01:40:46;4.60;;;3.47;;
13343;SDS011;6741;48.964;9.406;2022-08-21T01:43:13;3.53;;;3.23;;
13343;SDS011;6741;48.964;9.406;2022-08-21T01:45:39;3.90;;;3.13;;
13343;SDS011;6741;48.964;9.406;2022-08-21T01:48:06;3.17;;;2.87;;
13343;SDS011;6741;48.964;9.406;2022-08-21T01:50:33;4.27;;;3.60;;
13343;SDS011;6741;48.964;9.406;2022-08-21T01:53:00;4.40;;;3.47;;
13343;SDS011;6741;48.964;9.406;2022-08-21T01:55:29;5.10;;;3.17;;
13343;SDS011;6741;48.964;9.406;2022-08-21T01:57:56;3.87;;;3.27;;
13343;SDS011;6741;48.964;9.406;2022-08-21T02:00:25;4.03;;;3.67;;
13343;SDS011;6741;48.964;9.406;2022-08-21T02:02:52;10.53;;;3.40;;
13343;SDS011;6741;48.964;9.406;2022-08-21T02:05:19;4.20;;;3.80;;
13343;SDS011;6741;48.964;9.406;2022-08-21T02:07:47;4.20;;;3.50;;
13343;SDS011;6741;48.964;9.406;2022-08-21T02:10:18;4.77;;;4.10;;
13343;SDS011;6741;48.964;9.406;2022-08-21T02:12:48;3.93;;;3.63;;
13343;SDS011;6741;48.964;9.406;2022-08-21T02:15:15;4.57;;;3.97;;
13343;SDS011;6741;48.964;9.406;2022-08-21T02:17:43;3.80;;;3.40;;
13343;SDS011;6741;48.964;9.406;2022-08-21T02:20:15;3.93;;;3.53;;
13343;SDS011;6741;48.964;9.406;2022-08-21T02:22:43;3.60;;;3.30;;
13343;SDS011;6741;48.964;9.406;2022-08-21T02:25:10;5.07;;;3.80;;
13343;SDS011;6741;48.964;9.406;2022-08-21T02:27:38;5.77;;;3.90;;
13343;SDS011;6741;48.964;9.406;2022-08-21T02:30:08;4.70;;;3.57;;
13343;SDS011;6741;48.964;9.406;2022-08-21T02:32:37;5.90;;;3.60;;
13343;SDS011;6741;48.964;9.406;2022-08-21T02:35:05;4.00;;;3.70;;
13343;SDS011;6741;48.964;9.406;2022-08-21T02:37:33;4.10;;;3.80;;
13343;SDS011;6741;48.964;9.406;2022-08-21T02:40:00;3.80;;;3.50;;
13343;SDS011;6741;48.964;9.406;2022-08-21T02:42:27;5.23;;;3.70;;
13343;SDS011;6741;48.964;9.406;2022-08-21T02:44:55;4.00;;;3.70;;
13343;SDS011;6741;48.964;9.406;2022-08-21T02:47:23;4.70;;;3.30;;
13343;SDS011;6741;48.964;9.406;2022-08-21T02:49:51;3.93;;;3.63;;
13343;SDS011;6741;48.964;9.406;2022-08-21T02:52:18;4.40;;;4.00;;
13343;SDS011;6741;48.964;9.406;2022-08-21T02:54:46;5.07;;;3.67;;
13343;SDS011;6741;48.964;9.406;2022-08-21T02:57:14;4.07;;;3.77;;
13343;SDS011;6741;48.964;9.406;2022-08-21T02:59:40;4.67;;;4.27;;
13343;SDS011;6741;48.964;9.406;2022-08-21T03:02:07;5.57;;;4.10;;
13343;SDS011;6741;48.964;9.406;2022-08-21T03:04:38;4.57;;;3.83;;
13343;SDS011;6741;48.964;9.406;2022-08-21T03:07:05;4.13;;;3.73;;
13343;SDS011;6741;48.964;9.406;2022-08-21T03:09:31;4.20;;;3.90;;
13343;SDS011;6741;48.964;9.406;2022-08-21T03:11:58;6.27;;;4.23;;
13343;SDS011;6741;48.964;9.406;2022-08-21T03:14:25;6.37;;;4.03;;
13343;SDS011;6741;48.964;9.406;2022-08-21T03:16:52;4.07;;;3.70;;
13343;SDS011;6741;48.964;9.406;2022-08-21T03:19:19;4.87;;;3.77;;
13343;SDS011;6741;48.964;9.406;2022-08-21T03:21:47;3.93;;;3.53;;
13343;SDS011;6741;48.964;9.406;2022-08-21T03:24:14;6.43;;;3.70;;
13343;SDS011;6741;48.964;9.406;2022-08-21T03:26:41;3.77;;;3.37;;
13343;SDS011;6741;48.964;9.406;2022-08-21T03:29:08;3.53;;;3.00;;
13343;SDS011;6741;48.964;9.406;2022-08-21T03:31:35;5.50;;;3.57;;
13343;SDS011;6741;48.964;9.406;2022-08-21T03:34:02;5.77;;;3.23;;
13343;SDS011;6741;48.964;9.406;2022-08-21T03:36:29;5.73;;;3.97;;
13343;SDS011;6741;48.964;9.406;2022-08-21T03:38:57;6.33;;;3.53;;
13343;SDS011;6741;48.964;9.406;2022-08-21T03:41:24;6.57;;;3.53;;
13343;SDS011;6741;48.964;9.406;2022-08-21T03:43:51;3.17;;;2.90;;
13343;SDS011;6741;48.964;9.406;2022-08-21T03:46:18;4.13;;;3.30;;
13343;SDS011;6741;48.964;9.406;2022-08-21T03:48:45;4.23;;;3.50;;
13343;SDS011;6741;48.964;9.406;2022-08-21T03:51:13;4.83;;;3.30;;
13343;SDS011;6741;48.964;9.406;2022-08-21T03:53:40;3.60;;;3.30;;
13343;SDS011;6741;48.964;9.406;2022-08-21T03:56:08;8.60;;;3.47;;
13343;SDS011;6741;48.964;9.406;2022-08-21T03:58:36;4.80;;;3.43;;
13343;SDS011;6741;48.964;9.406;2022-08-21T04:01:03;5.83;;;3.67;;
13343;SDS011;6741;48.964;9.406;2022-08-21T04:03:32;3.60;;;3.30;;
13343;SDS011;6741;48.964;9.406;2022-08-21T04:06:01;7.13;;;3.30;;
13343;SDS011;6741;48.964;9.406;2022-08-21T04:08:28;3.60;;;3.30;;
13343;SDS011;6741;48.964;9.406;2022-08-21T04:10:55;6.60;;;3.83;;
13343;SDS011;6741;48.964;9.406;2022-08-21T04:13:25;4.00;;;3.70;;
13343;SDS011;6741;48.964;9.406;2022-08-21T04:15:54;4.00;;;3.50;;
13343;SDS011;6741;48.964;9.406;2022-08-21T04:18:21;4.17;;;3.70;;
13343;SDS011;6741;48.964;9.406;2022-08-21T04:20:49;4.00;;;3.67;;
13343;SDS011;6741;48.964;9.406;2022-08-21T04:23:19;4.30;;;3.90;;
13343;SDS011;6741;48.964;9.406;2022-08-21T04:25:46;3.77;;;3.47;;
13343;SDS011;6741;48.964;9.406;2022-08-21T04:28:13;4.00;;;3.60;;
13343;SDS011;6741;48.964;9.406;2022-08-21T04:30:41;4.10;;;3.70;;
13343;SDS011;6741;48.964;9.406;2022-08-21T04:33:09;4.53;;;3.40;;
13343;SDS011;6741;48.964;9.406;2022-08-21T04:35:35;4.77;;;3.97;;
13343;SDS011;6741;48.964;9.406;2022-08-21T04:38:02;3.87;;;3.57;;
13343;SDS011;6741;48.964;9.406;2022-08-21T04:40:29;4.23;;;3.83;;
13343;SDS011;6741;48.964;9.406;2022-08-21T04:42:57;3.80;;;3.50;;
13343;SDS011;6741;48.964;9.406;2022-08-21T04:45:28;4.53;;;3.53;;
13343;SDS011;6741;48.964;9.406;2022-08-21T04:47:58;3.93;;;3.53;;
13343;SDS011;6741;48.964;9.406;2022-08-21T04:50:26;5.60;;;4.00;;
13343;SDS011;6741;48.964;9.406;2022-08-21T04:52:55;4.30;;;3.67;;
13343;SDS011;6741;48.964;9.406;2022-08-21T04:55:23;4.63;;;4.23;;
13343;SDS011;6741;48.964;9.406;2022-08-21T04:57:53;4.73;;;3.90;;
13343;SDS011;6741;48.964;9.406;2022-08-21T05:00:20;4.30;;;3.97;;
13343;SDS011;6741;48.964;9.406;2022-08-21T05:02:49;4.93;;;4.27;;
13343;SDS011;6741;48.964;9.406;2022-08-21T05:05:22;4.33;;;4.00;;
13343;SDS011;6741;48.964;9.406;2022-08-21T05:07:50;4.10;;;3.70;;
13343;SDS011;6741;48.964;9.406;2022-08-21T05:10:18;4.83;;;4.33;;
13343;SDS011;6741;48.964;9.406;2022-08-21T05:12:46;4.70;;;4.20;;
13343;SDS011;6741;48.964;9.406;2022-08-21T05:15:13;4.50;;;4.10;;
13343;SDS011;6741;48.964;9.406;2022-08-21T05:17:40;4.73;;;4.23;;
13343;SDS011;6741;48.964;9.406;2022-08-21T05:20:08;5.20;;;4.20;;
13343;SDS011;6741;48.964;9.406;2022-08-21T05:22:37;4.67;;;4.33;;
13343;SDS011;6741;48.964;9.406;2022-08-21T05:25:06;4.77;;;4.37;;
13343;SDS011;6741;48.964;9.406;2022-08-21T05:27:33;4.60;;;4.20;;
13343;SDS011;6741;48.964;9.406;2022-08-21T05:30:00;5.23;;;4.70;;
13343;SDS011;6741;48.964;9.406;2022-08-21T05:32:27;5.00;;;4.50;;
13343;SDS011;6741;48.964;9.406;2022-08-21T05:34:54;5.40;;;4.60;;
13343;SDS011;6741;48.964;9.406;2022-08-21T05:37:21;5.23;;;4.30;;
13343;SDS011;6741;48.964;9.406;2022-08-21T05:39:50;4.73;;;4.23;;
13343;SDS011;6741;48.964;9.406;2022-08-21T05:42:17;5.30;;;4.40;;
13343;SDS011;6741;48.964;9.406;2022-08-21T05:44:44;5.27;;;4.37;;
13343;SDS011;6741;48.964;9.406;2022-08-21T05:47:10;4.73;;;4.17;;
13343;SDS011;6741;48.964;9.406;2022-08-21T05:49:38;5.37;;;4.87;;
13343;SDS011;6741;48.964;9.406;2022-08-21T05:52:05;4.20;;;3.90;;
13343;SDS011;6741;48.964;9.406;2022-08-21T05:54:32;6.70;;;4.37;;
13343;SDS011;6741;48.964;9.406;2022-08-21T05:57:00;4.83;;;4.33;;
13343;SDS011;6741;48.964;9.406;2022-08-21T05:59:27;4.87;;;4.33;;
13343;SDS011;6741;48.964;9.406;2022-08-21T06:01:54;4.80;;;4.40;;
13343;SDS011;6741;48.964;9.406;2022-08-21T06:04:21;5.27;;;4.70;;
13343;SDS011;6741;48.964;9.406;2022-08-21T06:06:47;6.00;;;4.97;;
13343;SDS011;6741;48.964;9.406;2022-08-21T06:09:14;4.97;;;4.47;;
13343;SDS011;6741;48.964;9.406;2022-08-21T06:11:41;5.53;;;5.03;;
13343;SDS011;6741;48.964;9.406;2022-08-21T06:14:09;5.50;;;4.87;;
13343;SDS011;6741;48.964;9.406;2022-08-21T06:16:39;5.70;;;5.20;;
13343;SDS011;6741;48.964;9.406;2022-08-21T06:19:06;6.80;;;5.30;;
13343;SDS011;6741;48.964;9.406;2022-08-21T06:21:33;6.03;;;5.33;;
13343;SDS011;6741;48.964;9.406;2022-08-21T06:24:00;5.83;;;5.30;;
13343;SDS011;6741;48.964;9.406;2022-08-21T06:26:27;5.60;;;5.10;;
13343;SDS011;6741;48.964;9.406;2022-08-21T06:28:54;5.73;;;5.17;;
13343;SDS011;6741;48.964;9.406;2022-08-21T06:31:23;5.23;;;4.73;;
13343;SDS011;6741;48.964;9.406;2022-08-21T06:33:51;5.13;;;4.73;;
13343;SDS011;6741;48.964;9.406;2022-08-21T06:36:19;5.87;;;5.20;;
13343;SDS011;6741;48.964;9.406;2022-08-21T06:38:46;5.50;;;5.00;;
13343;SDS011;6741;48.964;9.406;2022-08-21T06:41:13;5.30;;;4.80;;
13343;SDS011;6741;48.964;9.406;2022-08-21T06:43:40;5.75;;;5.15;;
13343;SDS011;6741;48.964;9.406;2022-08-21T06:46:07;5.45;;;4.95;;
13343;SDS011;6741;48.964;9.406;2022-08-21T06:48:36;5.20;;;4.40;;
13343;SDS011;6741;48.964;9.406;2022-08-21T06:51:02;4.78;;;4.45;;
13343;SDS011;6741;48.964;9.406;2022-08-21T06:53:30;5.22;;;4.78;;
13343;SDS011;6741;48.964;9.406;2022-08-21T06:55:57;5.40;;;4.90;;
13343;SDS011;6741;48.964;9.406;2022-08-21T06:58:25;8.70;;;4.88;;
13343;SDS011;6741;48.964;9.406;2022-08-21T07:00:52;5.55;;;5.10;;
13343;SDS011;6741;48.964;9.406;2022-08-21T07:03:20;5.45;;;5.00;;
13343;SDS011;6741;48.964;9.406;2022-08-21T07:05:50;5.57;;;4.70;;
13343;SDS011;6741;48.964;9.406;2022-08-21T07:08:17;5.18;;;4.68;;
13343;SDS011;6741;48.964;9.406;2022-08-21T07:10:44;5.25;;;4.75;;
13343;SDS011;6741;48.964;9.406;2022-08-21T07:13:12;4.90;;;4.45;;
13343;SDS011;6741;48.964;9.406;2022-08-21T07:15:40;7.10;;;4.93;;
13343;SDS011;6741;48.964;9.406;2022-08-21T07:18:07;6.18;;;4.40;;
13343;SDS011;6741;48.964;9.406;2022-08-21T07:20:35;6.07;;;3.90;;
13343;SDS011;6741;48.964;9.406;2022-08-21T07:23:04;3.97;;;3.67;;
13343;SDS011;6741;48.964;9.406;2022-08-21T07:25:34;6.50;;;4.00;;
13343;SDS011;6741;48.964;9.406;2022-08-21T07:28:02;6.53;;;4.00;;
13343;SDS011;6741;48.964;9.406;2022-08-21T07:30:29;6.22;;;4.22;;
13343;SDS011;6741;48.964;9.406;2022-08-21T07:32:56;6.47;;;4.50;;
13343;SDS011;6741;48.964;9.406;2022-08-21T07:35:23;5.13;;;4.32;;
13343;SDS011;6741;48.964;9.406;2022-08-21T07:37:50;4.82;;;4.40;;
13343;SDS011;6741;48.964;9.406;2022-08-21T07:40:18;4.22;;;3.85;;
13343;SDS011;6741;48.964;9.406;2022-08-21T07:42:46;4.97;;;4.45;;
13343;SDS011;6741;48.964;9.406;2022-08-21T07:45:17;6.15;;;4.68;;
13343;SDS011;6741;48.964;9.406;2022-08-21T07:47:44;4.60;;;4.00;;
13343;SDS011;6741;48.964;9.406;2022-08-21T07:50:12;5.50;;;4.13;;
13343;SDS011;6741;48.964;9.406;2022-08-21T07:52:39;5.85;;;4.28;;
13343;SDS011;6741;48.964;9.406;2022-08-21T07:55:08;5.75;;;4.57;;
13343;SDS011;6741;48.964;9.406;2022-08-21T07:57:37;5.88;;;4.43;;
13343;SDS011;6741;48.964;9.406;2022-08-21T08:00:05;4.68;;;3.85;;
13343;SDS011;6741;48.964;9.406;2022-08-21T08:02:36;6.57;;;4.43;;
13343;SDS011;6741;48.964;9.406;2022-08-21T08:05:05;7.25;;;4.70;;
13343;SDS011;6741;48.964;9.406;2022-08-21T08:07:34;7.47;;;4.60;;
13343;SDS011;6741;48.964;9.406;2022-08-21T08:10:01;6.38;;;4.78;;
13343;SDS011;6741;48.964;9.406;2022-08-21T08:12:28;9.30;;;5.60;;
13343;SDS011;6741;48.964;9.406;2022-08-21T08:14:57;6.38;;;4.68;;
13343;SDS011;6741;48.964;9.406;2022-08-21T08:17:26;5.47;;;4.38;;
13343;SDS011;6741;48.964;9.406;2022-08-21T08:19:53;5.38;;;4.70;;
13343;SDS011;6741;48.964;9.406;2022-08-21T08:22:21;8.88;;;4.78;;
13343;SDS011;6741;48.964;9.406;2022-08-21T08:24:49;4.93;;;4.43;;
13343;SDS011;6741;48.964;9.406;2022-08-21T08:27:17;6.57;;;4.85;;
13343;SDS011;6741;48.964;9.406;2022-08-21T08:29:44;8.60;;;5.85;;
13343;SDS011;6741;48.964;9.406;2022-08-21T08:32:13;8.07;;;5.57;;
13343;SDS011;6741;48.964;9.406;2022-08-21T08:34:40;7.68;;;5.20;;
13343;SDS011;6741;48.964;9.406;2022-08-21T08:37:07;8.90;;;5.95;;
13343;SDS011;6741;48.964;9.406;2022-08-21T08:39:36;7.53;;;5.88;;
13343;SDS011;6741;48.964;9.406;2022-08-21T08:42:04;6.57;;;5.80;;
13343;SDS011;6741;48.964;9.406;2022-08-21T08:44:35;5.97;;;5.47;;
13343;SDS011;6741;48.964;9.406;2022-08-21T08:47:02;5.78;;;5.22;;
13343;SDS011;6741;48.964;9.406;2022-08-21T08:49:37;6.38;;;5.70;;
13343;SDS011;6741;48.964;9.406;2022-08-21T08:52:10;8.98;;;5.45;;
13343;SDS011;6741;48.964;9.406;2022-08-21T08:54:45;5.82;;;5.30;;
13343;SDS011;6741;48.964;9.406;2022-08-21T08:57:16;6.03;;;5.40;;
13343;SDS011;6741;48.964;9.406;2022-08-21T08:59:46;7.22;;;5.70;;
13343;SDS011;6741;48.964;9.406;2022-08-21T09:02:16;7.00;;;5.95;;
13343;SDS011;6741;48.964;9.406;2022-08-21T09:04:45;8.02;;;5.40;;
13343;SDS011;6741;48.964;9.406;2022-08-21T09:07:16;5.95;;;5.20;;
13343;SDS011;6741;48.964;9.406;2022-08-21T09:09:58;7.28;;;5.35;;
13343;SDS011;6741;48.964;9.406;2022-08-21T09:12:33;5.85;;;4.82;;
13343;SDS011;6741;48.964;9.406;2022-08-21T09:15:12;5.85;;;4.78;;
13343;SDS011;6741;48.964;9.406;2022-08-21T09:17:52;6.00;;;4.57;;
13343;SDS011;6741;48.964;9.406;2022-08-21T09:20:36;5.03;;;4.53;;
13343;SDS011;6741;48.964;9.406;2022-08-21T09:23:11;5.63;;;4.18;;
13343;SDS011;6741;48.964;9.406;2022-08-21T09:25:51;5.32;;;4.15;;
13343;SDS011;6741;48.964;9.406;2022-08-21T09:28:24;6.88;;;4.40;;
13343;SDS011;6741;48.964;9.406;2022-08-21T09:30:51;5.18;;;4.72;;
13343;SDS011;6741;48.964;9.406;2022-08-21T09:33:21;6.88;;;4.65;;
13343;SDS011;6741;48.964;9.406;2022-08-21T09:35:50;7.30;;;4.72;;
13343;SDS011;6741;48.964;9.406;2022-08-21T09:38:28;5.65;;;4.88;;
13343;SDS011;6741;48.964;9.406;2022-08-21T09:40:59;5.97;;;4.60;;
13343;SDS011;6741;48.964;9.406;2022-08-21T09:43:28;8.15;;;4.03;;
13343;SDS011;6741;48.964;9.406;2022-08-21T09:46:03;7.10;;;4.13;;
13343;SDS011;6741;48.964;9.406;2022-08-21T09:48:41;4.93;;;3.83;;
13343;SDS011;6741;48.964;9.406;2022-08-21T09:51:12;5.95;;;3.88;;
13343;SDS011;6741;48.964;9.406;2022-08-21T09:53:42;4.05;;;3.50;;
13343;SDS011;6741;48.964;9.406;2022-08-21T09:56:17;4.45;;;3.80;;
13343;SDS011;6741;48.964;9.406;2022-08-21T09:59:12;5.65;;;3.78;;
13343;SDS011;6741;48.964;9.406;2022-08-21T10:01:42;8.13;;;4.40;;
13343;SDS011;6741;48.964;9.406;2022-08-21T10:04:12;10.60;;;4.95;;
13343;SDS011;6741;48.964;9.406;2022-08-21T10:06:41;6.35;;;4.43;;
13343;SDS011;6741;48.964;9.406;2022-08-21T10:09:09;7.90;;;4.50;;
13343;SDS011;6741;48.964;9.406;2022-08-21T10:11:37;4.93;;;3.88;;
13343;SDS011;6741;48.964;9.406;2022-08-21T10:14:08;6.47;;;3.97;;
13343;SDS011;6741;48.964;9.406;2022-08-21T10:16:42;7.57;;;3.90;;
13343;SDS011;6741;48.964;9.406;2022-08-21T10:19:21;4.80;;;3.42;;
13343;SDS011;6741;48.964;9.406;2022-08-21T10:22:02;5.43;;;3.72;;
13343;SDS011;6741;48.964;9.406;2022-08-21T10:24:44;4.15;;;3.22;;
13343;SDS011;6741;48.964;9.406;2022-08-21T10:27:20;3.50;;;3.20;;
13343;SDS011;6741;48.964;9.406;2022-08-21T10:29:59;6.55;;;3.80;;
13343;SDS011;6741;48.964;9.406;2022-08-21T10:32:34;4.85;;;3.58;;
13343;SDS011;6741;48.964;9.406;2022-08-21T10:35:14;4.30;;;3.42;;
13343;SDS011;6741;48.964;9.406;2022-08-21T10:37:48;4.55;;;3.50;;
13343;SDS011;6741;48.964;9.406;2022-08-21T10:40:29;4.60;;;3.15;;
13343;SDS011;6741;48.964;9.406;2022-08-21T10:43:05;4.60;;;3.33;;
13343;SDS011;6741;48.964;9.406;2022-08-21T10:45:49;5.68;;;3.40;;
13343;SDS011;6741;48.964;9.406;2022-08-21T10:48:25;4.82;;;2.80;;
13343;SDS011;6741;48.964;9.406;2022-08-21T10:50:57;3.53;;;3.03;;
13343;SDS011;6741;48.964;9.406;2022-08-21T10:53:35;5.78;;;3.03;;
13343;SDS011;6741;48.964;9.406;2022-08-21T10:56:10;4.60;;;3.03;;
13343;SDS011;6741;48.964;9.406;2022-08-21T10:58:45;3.83;;;2.90;;
13343;SDS011;6741;48.964;9.406;2022-08-21T11:01:17;4.60;;;3.15;;
13343;SDS011;6741;48.964;9.406;2022-08-21T11:03:50;5.78;;;3.60;;
13343;SDS011;6741;48.964;9.406;2022-08-21T11:06:21;4.07;;;3.35;;
13343;SDS011;6741;48.964;9.406;2022-08-21T11:08:51;3.63;;;3.10;;
13343;SDS011;6741;48.964;9.406;2022-08-21T11:11:25;3.25;;;2.67;;
13343;SDS011;6741;48.964;9.406;2022-08-21T11:13:56;3.95;;;2.80;;
13343;SDS011;6741;48.964;9.406;2022-08-21T11:16:29;4.25;;;2.60;;
13343;SDS011;6741;48.964;9.406;2022-08-21T11:19:04;3.03;;;2.70;;
13343;SDS011;6741;48.964;9.406;2022-08-21T11:21:37;4.85;;;2.92;;
13343;SDS011;6741;48.964;9.406;2022-08-21T11:24:14;6.78;;;2.75;;
13343;SDS011;6741;48.964;9.406;2022-08-21T11:26:50;7.88;;;3.15;;
13343;SDS011;6741;48.964;9.406;2022-08-21T11:29:24;5.13;;;3.15;;
13343;SDS011;6741;48.964;9.406;2022-08-21T11:31:58;3.97;;;2.88;;
13343;SDS011;6741;48.964;9.406;2022-08-21T11:34:38;4.70;;;2.78;;
13343;SDS011;6741;48.964;9.406;2022-08-21T11:37:16;6.05;;;3.30;;
13343;SDS011;6741;48.964;9.406;2022-08-21T11:39:54;4.18;;;3.03;;
13343;SDS011;6741;48.964;9.406;2022-08-21T11:42:30;3.95;;;2.75;;
13343;SDS011;6741;48.964;9.406;2022-08-21T11:45:07;4.57;;;2.75;;
13343;SDS011;6741;48.964;9.406;2022-08-21T11:47:48;2.88;;;2.65;;
13343;SDS011;6741;48.964;9.406;2022-08-21T11:50:23;6.72;;;2.85;;
13343;SDS011;6741;48.964;9.406;2022-08-21T11:52:54;5.45;;;3.30;;
13343;SDS011;6741;48.964;9.406;2022-08-21T11:55:29;2.95;;;2.60;;
13343;SDS011;6741;48.964;9.406;2022-08-21T11:58:01;3.97;;;2.85;;
13343;SDS011;6741;48.964;9.406;2022-08-21T12:00:35;5.57;;;2.90;;
13343;SDS011;6741;48.964;9.406;2022-08-21T12:03:09;4.60;;;3.05;;
13343;SDS011;6741;48.964;9.406;2022-08-21T12:05:40;4.57;;;2.75;;
13343;SDS011;6741;48.964;9.406;2022-08-21T12:08:11;3.90;;;3.03;;
13343;SDS011;6741;48.964;9.406;2022-08-21T12:10:42;4.10;;;2.95;;
13343;SDS011;6741;48.964;9.406;2022-08-21T12:13:22;6.07;;;2.80;;
13343;SDS011;6741;48.964;9.406;2022-08-21T12:15:50;4.38;;;2.90;;
13343;SDS011;6741;48.964;9.406;2022-08-21T12:18:21;5.20;;;3.20;;
13343;SDS011;6741;48.964;9.406;2022-08-21T12:21:04;4.03;;;2.50;;
13343;SDS011;6741;48.964;9.406;2022-08-21T12:23:44;3.85;;;2.78;;
13343;SDS011;6741;48.964;9.406;2022-08-21T12:26:20;5.28;;;2.72;;
13343;SDS011;6741;48.964;9.406;2022-08-21T12:28:51;4.22;;;2.67;;
13343;SDS011;6741;48.964;9.406;2022-08-21T12:31:50;9.52;;;2.92;;
13343;SDS011;6741;48.964;9.406;2022-08-21T12:34:23;3.75;;;2.70;;
13343;SDS011;6741;48.964;9.406;2022-08-21T12:36:57;6.38;;;2.60;;
13343;SDS011;6741;48.964;9.406;2022-08-21T12:39:26;3.42;;;2.15;;
13343;SDS011;6741;48.964;9.406;2022-08-21T12:41:58;3.60;;;2.67;;
13343;SDS011;6741;48.964;9.406;2022-08-21T12:44:37;2.47;;;2.28;;
13343;SDS011;6741;48.964;9.406;2022-08-21T12:47:13;4.70;;;2.47;;
13343;SDS011;6741;48.964;9.406;2022-08-21T12:49:44;3.58;;;2.45;;
13343;SDS011;6741;48.964;9.406;2022-08-21T12:52:19;3.25;;;2.33;;
13343;SDS011;6741;48.964;9.406;2022-08-21T12:54:48;4.53;;;2.67;;
13343;SDS011;6741;48.964;9.406;2022-08-21T12:57:21;4.85;;;2.45;;
13343;SDS011;6741;48.964;9.406;2022-08-21T12:59:53;4.03;;;2.70;;
13343;SDS011;6741;48.964;9.406;2022-08-21T13:02:23;3.17;;;2.50;;
13343;SDS011;6741;48.964;9.406;2022-08-21T13:04:52;5.00;;;2.75;;
13343;SDS011;6741;48.964;9.406;2022-08-21T13:07:22;3.30;;;2.50;;
13343;SDS011;6741;48.964;9.406;2022-08-21T13:09:55;3.03;;;2.47;;
13343;SDS011;6741;48.964;9.406;2022-08-21T13:12:25;3.13;;;2.35;;
13343;SDS011;6741;48.964;9.406;2022-08-21T13:14:55;5.25;;;2.60;;
13343;SDS011;6741;48.964;9.406;2022-08-21T13:17:25;3.58;;;2.55;;
13343;SDS011;6741;48.964;9.406;2022-08-21T13:19:54;4.15;;;2.60;;
13343;SDS011;6741;48.964;9.406;2022-08-21T13:22:23;3.15;;;2.33;;
13343;SDS011;6741;48.964;9.406;2022-08-21T13:24:50;3.25;;;2.65;;
13343;SDS011;6741;48.964;9.406;2022-08-21T13:27:20;3.45;;;2.47;;
13343;SDS011;6741;48.964;9.406;2022-08-21T13:29:59;3.97;;;2.45;;
13343;SDS011;6741;48.964;9.406;2022-08-21T13:32:33;3.40;;;2.60;;
13343;SDS011;6741;48.964;9.406;2022-08-21T13:35:13;3.10;;;2.40;;
13343;SDS011;6741;48.964;9.406;2022-08-21T13:37:42;2.42;;;2.15;;
13343;SDS011;6741;48.964;9.406;2022-08-21T13:40:11;3.33;;;2.22;;
13343;SDS011;6741;48.964;9.406;2022-08-21T13:42:42;2.03;;;1.83;;
13343;SDS011;6741;48.964;9.406;2022-08-21T13:45:16;2.63;;;2.38;;
13343;SDS011;6741;48.964;9.406;2022-08-21T13:47:47;3.22;;;2.78;;
13343;SDS011;6741;48.964;9.406;2022-08-21T13:50:15;2.60;;;2.17;;
13343;SDS011;6741;48.964;9.406;2022-08-21T13:52:48;3.35;;;2.45;;
13343;SDS011;6741;48.964;9.406;2022-08-21T13:55:20;6.05;;;2.50;;
13343;SDS011;6741;48.964;9.406;2022-08-21T13:57:47;2.60;;;1.90;;
13343;SDS011;6741;48.964;9.406;2022-08-21T14:00:29;2.25;;;1.98;;
13343;SDS011;6741;48.964;9.406;2022-08-21T14:03:01;3.22;;;2.17;;
13343;SDS011;6741;48.964;9.406;2022-08-21T14:05:32;2.83;;;2.20;;
13343;SDS011;6741;48.964;9.406;2022-08-21T14:08:04;2.97;;;2.03;;
13343;SDS011;6741;48.964;9.406;2022-08-21T14:10:35;2.58;;;2.30;;
13343;SDS011;6741;48.964;9.406;2022-08-21T14:13:06;2.72;;;2.42;;
13343;SDS011;6741;48.964;9.406;2022-08-21T14:15:49;2.88;;;2.20;;
13343;SDS011;6741;48.964;9.406;2022-08-21T14:18:21;2.45;;;2.20;;
13343;SDS011;6741;48.964;9.406;2022-08-21T14:20:50;2.58;;;2.33;;
13343;SDS011;6741;48.964;9.406;2022-08-21T14:23:23;2.97;;;2.05;;
13343;SDS011;6741;48.964;9.406;2022-08-21T14:25:50;3.00;;;2.03;;
13343;SDS011;6741;48.964;9.406;2022-08-21T14:28:19;2.88;;;2.15;;
13343;SDS011;6741;48.964;9.406;2022-08-21T14:30:55;2.42;;;2.13;;
13343;SDS011;6741;48.964;9.406;2022-08-21T14:33:23;3.25;;;2.08;;
13343;SDS011;6741;48.964;9.406;2022-08-21T14:35:52;2.65;;;2.10;;
13343;SDS011;6741;48.964;9.406;2022-08-21T14:38:20;2.80;;;2.28;;
13343;SDS011;6741;48.964;9.406;2022-08-21T14:40:51;2.35;;;2.05;;
13343;SDS011;6741;48.964;9.406;2022-08-21T14:43:19;2.20;;;2.00;;
13343;SDS011;6741;48.964;9.406;2022-08-21T14:45:47;2.10;;;1.90;;
13343;SDS011;6741;48.964;9.406;2022-08-21T14:48:15;2.70;;;2.20;;
13343;SDS011;6741;48.964;9.406;2022-08-21T14:50:42;2.00;;;1.90;;
13343;SDS011;6741;48.964;9.406;2022-08-21T14:53:09;4.40;;;2.00;;
13343;SDS011;6741;48.964;9.406;2022-08-21T14:55:36;2.47;;;1.90;;
13343;SDS011;6741;48.964;9.406;2022-08-21T14:58:19;2.53;;;1.98;;
13343;SDS011;6741;48.964;9.406;2022-08-21T15:00:47;2.78;;;2.20;;
13343;SDS011;6741;48.964;9.406;2022-08-21T15:03:16;3.65;;;2.40;;
13343;SDS011;6741;48.964;9.406;2022-08-21T15:05:43;2.63;;;2.30;;
13343;SDS011;6741;48.964;9.406;2022-08-21T15:08:11;2.40;;;2.20;;
13343;SDS011;6741;48.964;9.406;2022-08-21T15:10:38;3.45;;;2.33;;
13343;SDS011;6741;48.964;9.406;2022-08-21T15:13:05;2.15;;;1.90;;
13343;SDS011;6741;48.964;9.406;2022-08-21T15:15:35;4.05;;;2.45;;
13343;SDS011;6741;48.964;9.406;2022-08-21T15:18:06;3.33;;;2.40;;